createdAt,value
2023-08-17T00:00:23.741Z,75.04
2023-08-17T00:10:26.907Z,75.74
2023-08-17T00:20:29.890Z,76.19
2023-08-17T00:30:36.502Z,76.97
2023-08-17T00:40:39.706Z,77.50
2023-08-17T00:50:44.526Z,76.06
2023-08-17T01:00:48.061Z,74.18
2023-08-17T01:10:58.792Z,75.18
2023-08-17T01:21:06.428Z,85.87
2023-08-17T01:31:12.285Z,93.69
2023-08-17T01:41:16.658Z,96.06
2023-08-17T01:51:20.563Z,99.13
2023-08-17T02:01:23.841Z,100.00
2023-08-17T02:11:27.544Z,100.00
2023-08-17T02:21:30.526Z,100.00
2023-08-17T02:31:33.574Z,99.86
2023-08-17T02:41:36.572Z,98.26
2023-08-17T02:51:39.547Z,97.20
2023-08-17T03:01:42.592Z,97.51
2023-08-17T03:11:45.684Z,96.40
2023-08-17T03:21:48.682Z,96.39
2023-08-17T03:31:51.680Z,96.43
2023-08-17T03:41:54.669Z,97.54
2023-08-17T03:51:57.789Z,98.14
2023-08-17T04:02:01.060Z,98.24
2023-08-17T04:12:05.475Z,98.94
2023-08-17T04:22:10.722Z,99.14
2023-08-17T04:32:16.430Z,99.17
2023-08-17T04:42:20.451Z,99.67
2023-08-17T04:52:23.706Z,99.90
2023-08-17T05:02:27.445Z,99.57
2023-08-17T05:12:31.260Z,98.89
2023-08-17T05:22:34.381Z,98.61
2023-08-17T05:32:37.442Z,98.75
2023-08-17T05:42:40.639Z,98.61
2023-08-17T05:52:43.704Z,97.97
2023-08-17T06:02:50.463Z,97.69
2023-08-17T06:12:52.906Z,96.06
2023-08-17T06:22:55.882Z,94.26
2023-08-17T06:32:59.462Z,91.24
2023-08-17T06:43:02.458Z,89.58
2023-08-17T06:53:06.301Z,89.68
2023-08-17T07:03:09.661Z,89.49
2023-08-17T07:13:12.659Z,88.75
2023-08-17T07:23:15.783Z,87.84
2023-08-17T07:33:18.840Z,85.37
2023-08-17T07:43:21.857Z,83.27
2023-08-17T07:53:24.929Z,81.31
2023-08-17T08:03:27.999Z,77.66
2023-08-17T08:13:31.052Z,75.67
2023-08-17T08:23:34.058Z,71.63
2023-08-17T08:33:37.214Z,70.03
2023-08-17T08:43:40.444Z,69.63
2023-08-17T08:53:46.529Z,66.93
2023-08-17T09:03:50.541Z,64.15
2023-08-17T09:13:55.101Z,62.14
2023-08-17T09:24:00.406Z,60.68
2023-08-17T09:34:07.512Z,59.97
2023-08-17T09:44:12.005Z,59.31
2023-08-17T09:54:23.042Z,57.87
2023-08-17T10:04:28.692Z,56.03
2023-08-17T10:14:36.245Z,54.17
2023-08-17T10:24:40.318Z,51.31
2023-08-17T10:34:43.999Z,48.51
2023-08-17T10:44:48.211Z,46.25
2023-08-17T10:54:51.345Z,44.84
2023-08-17T11:04:54.353Z,43.23
2023-08-17T11:15:00.339Z,41.87
2023-08-17T11:25:07.487Z,41.16
2023-08-17T11:35:11.595Z,39.54
2023-08-17T11:45:15.660Z,40.36
2023-08-17T11:55:20.956Z,40.14
2023-08-17T12:05:27.456Z,40.07
2023-08-17T12:15:33.115Z,38.62
2023-08-17T12:25:36.098Z,37.52
2023-08-17T12:35:39.815Z,36.39
2023-08-17T12:45:42.862Z,35.05
2023-08-17T12:55:45.945Z,34.86
2023-08-17T13:05:48.922Z,34.47
2023-08-17T13:15:52.853Z,33.31
2023-08-17T13:25:55.831Z,31.98
2023-08-17T13:35:58.958Z,32.52
2023-08-17T13:46:02.480Z,33.19
2023-08-17T13:56:05.940Z,32.13
2023-08-17T14:06:08.970Z,31.21
2023-08-17T14:16:12.279Z,31.25
2023-08-17T14:26:15.747Z,30.92
2023-08-17T14:36:20.489Z,31.69
2023-08-17T14:46:24.087Z,30.70
2023-08-17T14:56:27.125Z,31.26
2023-08-17T15:06:34.261Z,30.35
2023-08-17T15:16:38.119Z,35.57
2023-08-17T15:26:41.457Z,41.41
2023-08-17T15:36:44.464Z,47.83
2023-08-17T15:46:47.424Z,53.47
2023-08-17T15:56:51.059Z,56.34
2023-08-17T16:06:54.431Z,56.65
2023-08-17T16:16:57.928Z,59.06
2023-08-17T16:27:01.653Z,61.26
2023-08-17T16:37:04.880Z,62.21
2023-08-17T16:47:07.900Z,63.58
2023-08-17T16:57:10.933Z,64.44
2023-08-17T17:07:14.627Z,65.12
2023-08-17T17:17:17.698Z,65.93
2023-08-17T17:27:20.676Z,66.49
2023-08-17T17:37:23.726Z,66.87
2023-08-17T17:47:27.618Z,67.66
2023-08-17T17:57:31.175Z,68.07
2023-08-17T18:07:34.398Z,69.09
2023-08-17T18:17:37.433Z,70.08
2023-08-17T18:27:42.135Z,71.59
2023-08-17T18:37:46.237Z,72.75
2023-08-17T18:47:49.184Z,73.81
2023-08-17T18:57:54.150Z,74.23
2023-08-17T19:07:58.016Z,74.44
2023-08-17T19:18:01.046Z,75.38
2023-08-17T19:28:04.527Z,76.41
2023-08-17T19:38:07.513Z,76.36
2023-08-17T19:48:10.583Z,76.50
2023-08-17T19:58:13.648Z,77.18
2023-08-17T20:08:16.676Z,76.59
2023-08-17T20:18:19.720Z,76.78
2023-08-17T20:28:22.742Z,77.30
2023-08-17T20:38:25.685Z,77.85
2023-08-17T20:48:28.710Z,78.93
2023-08-17T20:58:31.703Z,78.86
2023-08-17T21:08:35.752Z,78.25
2023-08-17T21:18:39.818Z,77.98
2023-08-17T21:28:42.857Z,78.89
2023-08-17T21:38:47.213Z,79.98
2023-08-17T21:48:50.475Z,82.36
2023-08-17T21:58:53.530Z,83.39
2023-08-17T22:08:56.477Z,85.09
2023-08-17T22:18:59.481Z,86.17
2023-08-17T22:29:03.826Z,86.83
2023-08-17T22:39:10.753Z,87.47
2023-08-17T22:49:13.880Z,87.54
2023-08-17T22:59:17.999Z,87.84
2023-08-17T23:09:21.617Z,88.27
2023-08-17T23:19:24.767Z,88.68
2023-08-17T23:29:27.863Z,88.87
2023-08-17T23:39:30.975Z,89.39
2023-08-17T23:49:34.494Z,89.26
2023-08-17T23:59:37.495Z,88.70
